sensor_id;sensor_type;location;lat;lon;timestamp;pressure;altitude;pressure_sealevel;temperature;humidity
76074;BME280;64776;42.636;24.358;2023-04-25T00:02:37;89462.91;;;7.77;88.44
76074;BME280;64776;42.636;24.358;2023-04-25T00:05:37;89461.97;;;7.80;88.35
76074;BME280;64776;42.636;24.358;2023-04-25T00:08:40;89465.03;;;7.73;88.06
76074;BME280;64776;42.636;24.358;2023-04-25T00:11:40;89463.88;;;7.80;88.36
76074;BME280;64776;42.636;24.358;2023-04-25T00:14:41;89453.22;;;7.74;88.48
76074;BME280;64776;42.636;24.358;2023-04-25T00:17:42;89449.88;;;7.79;88.18
76074;BME280;64776;42.636;24.358;2023-04-25T00:20:43;89448.72;;;7.86;87.83
76074;BME280;64776;42.636;24.358;2023-04-25T00:23:45;89442.41;;;7.83;88.08
76074;BME280;64776;42.636;24.358;2023-04-25T00:26:46;89438.22;;;7.71;87.83
76074;BME280;64776;42.636;24.358;2023-04-25T00:29:47;89439.81;;;7.58;88.06
76074;BME280;64776;42.636;24.358;2023-04-25T00:32:47;89438.97;;;7.46;88.42
76074;BME280;64776;42.636;24.358;2023-04-25T00:35:48;89434.28;;;7.35;89.00
76074;BME280;64776;42.636;24.358;2023-04-25T00:38:50;89426.53;;;7.58;88.51
76074;BME280;64776;42.636;24.358;2023-04-25T00:41:54;89422.72;;;7.64;88.25
76074;BME280;64776;42.636;24.358;2023-04-25T00:44:55;89423.84;;;7.52;88.42
76074;BME280;64776;42.636;24.358;2023-04-25T00:47:56;89418.56;;;7.32;89.79
76074;BME280;64776;42.636;24.358;2023-04-25T00:50:58;89421.22;;;7.32;89.54
76074;BME280;64776;42.636;24.358;2023-04-25T00:54:01;89417.78;;;7.26;89.86
76074;BME280;64776;42.636;24.358;2023-04-25T00:57:02;89421.22;;;7.32;89.89
76074;BME280;64776;42.636;24.358;2023-04-25T01:00:04;89416.53;;;7.47;88.89
76074;BME280;64776;42.636;24.358;2023-04-25T01:03:05;89411.50;;;7.49;89.04
76074;BME280;64776;42.636;24.358;2023-04-25T01:06:06;89416.25;;;7.39;89.40
76074;BME280;64776;42.636;24.358;2023-04-25T01:09:09;89414.72;;;7.33;89.07
76074;BME280;64776;42.636;24.358;2023-04-25T01:12:10;89414.81;;;7.44;89.73
76074;BME280;64776;42.636;24.358;2023-04-25T01:15:12;89414.28;;;7.40;89.54
76074;BME280;64776;42.636;24.358;2023-04-25T01:18:12;89408.63;;;7.27;89.89
76074;BME280;64776;42.636;24.358;2023-04-25T01:21:16;89406.81;;;6.93;92.03
76074;BME280;64776;42.636;24.358;2023-04-25T01:24:17;89406.97;;;7.04;91.83
76074;BME280;64776;42.636;24.358;2023-04-25T01:27:18;89408.22;;;7.08;91.33
76074;BME280;64776;42.636;24.358;2023-04-25T01:30:20;89404.94;;;7.19;91.08
76074;BME280;64776;42.636;24.358;2023-04-25T01:33:21;89408.56;;;7.21;91.32
76074;BME280;64776;42.636;24.358;2023-04-25T01:36:24;89406.75;;;7.33;91.19
76074;BME280;64776;42.636;24.358;2023-04-25T01:39:25;89397.44;;;7.43;90.61
76074;BME280;64776;42.636;24.358;2023-04-25T01:42:26;89403.91;;;7.36;89.96
76074;BME280;64776;42.636;24.358;2023-04-25T01:45:26;89404.13;;;7.33;89.88
76074;BME280;64776;42.636;24.358;2023-04-25T01:48:27;89406.84;;;7.44;89.81
76074;BME280;64776;42.636;24.358;2023-04-25T01:51:30;89389.84;;;7.56;89.75
76074;BME280;64776;42.636;24.358;2023-04-25T01:54:31;89388.63;;;7.57;88.92
76074;BME280;64776;42.636;24.358;2023-04-25T01:57:31;89373.44;;;7.58;89.10
76074;BME280;64776;42.636;24.358;2023-04-25T02:00:32;89364.19;;;7.48;89.36
76074;BME280;64776;42.636;24.358;2023-04-25T02:03:34;89374.56;;;7.20;89.61
76074;BME280;64776;42.636;24.358;2023-04-25T02:06:36;89379.84;;;7.20;90.11
76074;BME280;64776;42.636;24.358;2023-04-25T02:09:37;89364.25;;;7.27;90.17
76074;BME280;64776;42.636;24.358;2023-04-25T02:12:38;89375.03;;;7.18;90.48
76074;BME280;64776;42.636;24.358;2023-04-25T02:15:38;89370.38;;;7.13;90.52
76074;BME280;64776;42.636;24.358;2023-04-25T02:18:39;89367.16;;;7.04;91.13
76074;BME280;64776;42.636;24.358;2023-04-25T02:21:41;89360.50;;;7.14;91.23
76074;BME280;64776;42.636;24.358;2023-04-25T02:24:42;89367.81;;;7.19;91.28
76074;BME280;64776;42.636;24.358;2023-04-25T02:27:43;89369.94;;;7.15;91.08
76074;BME280;64776;42.636;24.358;2023-04-25T02:30:44;89371.00;;;7.03;91.62
76074;BME280;64776;42.636;24.358;2023-04-25T02:33:46;89359.59;;;7.17;91.07
76074;BME280;64776;42.636;24.358;2023-04-25T02:36:49;89360.19;;;7.32;89.83
76074;BME280;64776;42.636;24.358;2023-04-25T02:39:53;89361.56;;;7.22;90.74
76074;BME280;64776;42.636;24.358;2023-04-25T02:42:54;89353.13;;;7.23;90.35
76074;BME280;64776;42.636;24.358;2023-04-25T02:45:54;89351.47;;;7.26;89.98
76074;BME280;64776;42.636;24.358;2023-04-25T02:48:55;89357.28;;;7.30;90.09
76074;BME280;64776;42.636;24.358;2023-04-25T02:51:57;89361.13;;;7.29;89.73
76074;BME280;64776;42.636;24.358;2023-04-25T02:54:58;89361.84;;;7.29;89.12
76074;BME280;64776;42.636;24.358;2023-04-25T02:57:59;89357.91;;;7.19;90.04
76074;BME280;64776;42.636;24.358;2023-04-25T03:01:00;89362.50;;;7.19;90.19
76074;BME280;64776;42.636;24.358;2023-04-25T03:04:00;89362.38;;;7.08;90.75
76074;BME280;64776;42.636;24.358;2023-04-25T03:07:04;89361.72;;;7.13;90.60
76074;BME280;64776;42.636;24.358;2023-04-25T03:10:06;89360.00;;;7.10;90.08
76074;BME280;64776;42.636;24.358;2023-04-25T03:13:06;89356.81;;;7.06;90.05
76074;BME280;64776;42.636;24.358;2023-04-25T03:16:07;89358.47;;;7.03;90.14
76074;BME280;64776;42.636;24.358;2023-04-25T03:19:08;89354.94;;;7.12;89.38
76074;BME280;64776;42.636;24.358;2023-04-25T03:22:10;89353.69;;;7.07;88.90
76074;BME280;64776;42.636;24.358;2023-04-25T03:25:11;89351.53;;;7.06;89.10
76074;BME280;64776;42.636;24.358;2023-04-25T03:28:12;89351.25;;;7.04;88.81
76074;BME280;64776;42.636;24.358;2023-04-25T03:31:12;89349.09;;;7.02;89.05
76074;BME280;64776;42.636;24.358;2023-04-25T03:34:13;89343.97;;;6.99;89.07
76074;BME280;64776;42.636;24.358;2023-04-25T03:37:16;89344.66;;;6.94;88.86
76074;BME280;64776;42.636;24.358;2023-04-25T03:40:16;89340.84;;;6.75;88.55
76074;BME280;64776;42.636;24.358;2023-04-25T03:43:17;89350.59;;;6.63;88.86
76074;BME280;64776;42.636;24.358;2023-04-25T03:46:21;89349.66;;;6.66;88.52
76074;BME280;64776;42.636;24.358;2023-04-25T03:49:33;89354.41;;;6.36;89.98
76074;BME280;64776;42.636;24.358;2023-04-25T03:52:46;89360.88;;;6.15;90.52
76074;BME280;64776;42.636;24.358;2023-04-25T03:55:47;89361.88;;;6.38;90.68
76074;BME280;64776;42.636;24.358;2023-04-25T03:58:48;89354.47;;;6.42;90.92
76074;BME280;64776;42.636;24.358;2023-04-25T04:01:48;89354.63;;;6.18;90.95
76074;BME280;64776;42.636;24.358;2023-04-25T04:04:50;89353.72;;;6.21;91.00
76074;BME280;64776;42.636;24.358;2023-04-25T04:07:52;89360.94;;;6.41;90.25
76074;BME280;64776;42.636;24.358;2023-04-25T04:10:53;89357.84;;;6.42;89.87
76074;BME280;64776;42.636;24.358;2023-04-25T04:13:54;89366.97;;;6.41;90.52
76074;BME280;64776;42.636;24.358;2023-04-25T04:16:55;89366.13;;;6.50;89.88
76074;BME280;64776;42.636;24.358;2023-04-25T04:19:55;89363.31;;;6.39;90.67
76074;BME280;64776;42.636;24.358;2023-04-25T04:22:57;89358.91;;;6.50;90.29
76074;BME280;64776;42.636;24.358;2023-04-25T04:25:58;89350.53;;;6.57;90.31
76074;BME280;64776;42.636;24.358;2023-04-25T04:28:59;89356.09;;;6.59;91.04
76074;BME280;64776;42.636;24.358;2023-04-25T04:32:00;89364.41;;;6.47;91.97
76074;BME280;64776;42.636;24.358;2023-04-25T04:35:01;89366.03;;;6.65;91.25
76074;BME280;64776;42.636;24.358;2023-04-25T04:38:03;89368.09;;;6.75;90.77
76074;BME280;64776;42.636;24.358;2023-04-25T04:41:04;89352.72;;;6.79;90.22
76074;BME280;64776;42.636;24.358;2023-04-25T04:44:05;89357.78;;;6.83;90.52
76074;BME280;64776;42.636;24.358;2023-04-25T04:47:06;89358.66;;;6.94;90.10
76074;BME280;64776;42.636;24.358;2023-04-25T04:50:07;89364.81;;;6.86;90.49
76074;BME280;64776;42.636;24.358;2023-04-25T04:53:10;89368.88;;;6.81;90.53
76074;BME280;64776;42.636;24.358;2023-04-25T04:56:10;89366.00;;;6.85;90.53
76074;BME280;64776;42.636;24.358;2023-04-25T04:59:11;89373.56;;;6.92;90.39
76074;BME280;64776;42.636;24.358;2023-04-25T05:02:12;89368.53;;;6.94;90.81
76074;BME280;64776;42.636;24.358;2023-04-25T05:05:13;89367.44;;;7.06;91.35
76074;BME280;64776;42.636;24.358;2023-04-25T05:08:15;89374.28;;;7.18;90.84
76074;BME280;64776;42.636;24.358;2023-04-25T05:11:16;89363.56;;;7.32;90.53
76074;BME280;64776;42.636;24.358;2023-04-25T05:14:17;89371.53;;;7.32;90.54
76074;BME280;64776;42.636;24.358;2023-04-25T05:17:17;89360.00;;;7.35;90.59
76074;BME280;64776;42.636;24.358;2023-04-25T05:20:18;89367.66;;;7.59;90.33
76074;BME280;64776;42.636;24.358;2023-04-25T05:23:20;89366.34;;;7.75;89.82
76074;BME280;64776;42.636;24.358;2023-04-25T05:26:21;89359.09;;;7.75;90.24
76074;BME280;64776;42.636;24.358;2023-04-25T05:29:22;89358.47;;;7.91;90.17
76074;BME280;64776;42.636;24.358;2023-04-25T05:32:23;89356.84;;;7.99;88.82
76074;BME280;64776;42.636;24.358;2023-04-25T05:35:24;89354.53;;;8.18;89.17
76074;BME280;64776;42.636;24.358;2023-04-25T05:38:26;89361.78;;;8.23;87.55
76074;BME280;64776;42.636;24.358;2023-04-25T05:41:27;89360.69;;;8.35;88.68
76074;BME280;64776;42.636;24.358;2023-04-25T05:44:28;89351.84;;;8.55;89.42
76074;BME280;64776;42.636;24.358;2023-04-25T05:47:28;89351.34;;;8.51;89.30
76074;BME280;64776;42.636;24.358;2023-04-25T05:50:29;89336.16;;;8.68;88.72
76074;BME280;64776;42.636;24.358;2023-04-25T05:53:31;89346.06;;;8.62;86.98
76074;BME280;64776;42.636;24.358;2023-04-25T05:56:32;89342.03;;;8.88;87.48
76074;BME280;64776;42.636;24.358;2023-04-25T05:59:34;89339.97;;;9.31;85.09
76074;BME280;64776;42.636;24.358;2023-04-25T06:02:35;89343.84;;;9.41;86.48
76074;BME280;64776;42.636;24.358;2023-04-25T06:05:36;89343.34;;;9.59;86.97
76074;BME280;64776;42.636;24.358;2023-04-25T06:08:38;89340.44;;;9.74;84.72
76074;BME280;64776;42.636;24.358;2023-04-25T06:11:39;89335.09;;;9.85;80.74
76074;BME280;64776;42.636;24.358;2023-04-25T06:14:40;89342.88;;;9.77;79.08
76074;BME280;64776;42.636;24.358;2023-04-25T06:17:43;89329.53;;;9.83;77.80
76074;BME280;64776;42.636;24.358;2023-04-25T06:20:44;89336.81;;;9.88;78.90
76074;BME280;64776;42.636;24.358;2023-04-25T06:23:46;89331.69;;;10.29;79.89
76074;BME280;64776;42.636;24.358;2023-04-25T06:26:46;89327.75;;;10.52;77.95
76074;BME280;64776;42.636;24.358;2023-04-25T06:29:47;89332.28;;;10.74;77.87
76074;BME280;64776;42.636;24.358;2023-04-25T06:32:48;89324.47;;;10.81;78.02
76074;BME280;64776;42.636;24.358;2023-04-25T06:35:49;89334.41;;;10.81;79.20
76074;BME280;64776;42.636;24.358;2023-04-25T06:38:51;89330.56;;;10.76;76.96
76074;BME280;64776;42.636;24.358;2023-04-25T06:41:52;89329.28;;;10.94;78.13
76074;BME280;64776;42.636;24.358;2023-04-25T06:44:53;89334.06;;;11.06;77.38
76074;BME280;64776;42.636;24.358;2023-04-25T06:47:54;89331.94;;;10.94;77.92
76074;BME280;64776;42.636;24.358;2023-04-25T06:50:54;89342.22;;;10.73;78.87
76074;BME280;64776;42.636;24.358;2023-04-25T06:53:57;89331.81;;;10.64;79.80
76074;BME280;64776;42.636;24.358;2023-04-25T06:56:58;89333.50;;;10.61;77.90
76074;BME280;64776;42.636;24.358;2023-04-25T06:59:59;89336.66;;;10.71;77.75
76074;BME280;64776;42.636;24.358;2023-04-25T07:02:59;89338.13;;;10.67;77.54
76074;BME280;64776;42.636;24.358;2023-04-25T07:06:30;89330.81;;;10.73;78.68
76074;BME280;64776;42.636;24.358;2023-04-25T07:09:35;89335.94;;;10.65;77.54
76074;BME280;64776;42.636;24.358;2023-04-25T07:12:35;89331.72;;;10.86;77.55
76074;BME280;64776;42.636;24.358;2023-04-25T07:15:36;89328.19;;;10.67;78.31
76074;BME280;64776;42.636;24.358;2023-04-25T07:18:37;89332.28;;;10.68;78.82
76074;BME280;64776;42.636;24.358;2023-04-25T07:21:38;89325.44;;;10.84;80.08
76074;BME280;64776;42.636;24.358;2023-04-25T07:24:40;89329.78;;;10.87;77.59
76074;BME280;64776;42.636;24.358;2023-04-25T07:27:41;89325.63;;;10.91;79.08
76074;BME280;64776;42.636;24.358;2023-04-25T07:30:42;89321.63;;;10.68;75.29
76074;BME280;64776;42.636;24.358;2023-04-25T07:33:42;89341.97;;;10.65;76.85
76074;BME280;64776;42.636;24.358;2023-04-25T07:36:43;89343.66;;;10.74;75.50
76074;BME280;64776;42.636;24.358;2023-04-25T07:39:45;89339.28;;;10.77;74.09
76074;BME280;64776;42.636;24.358;2023-04-25T07:42:46;89335.19;;;10.76;74.09
76074;BME280;64776;42.636;24.358;2023-04-25T07:45:47;89340.56;;;10.59;76.42
76074;BME280;64776;42.636;24.358;2023-04-25T07:48:48;89348.16;;;10.33;75.33
76074;BME280;64776;42.636;24.358;2023-04-25T07:51:48;89354.69;;;10.37;75.17
76074;BME280;64776;42.636;24.358;2023-04-25T07:54:51;89355.59;;;10.51;75.86
76074;BME280;64776;42.636;24.358;2023-04-25T07:57:51;89357.81;;;10.47;74.18
76074;BME280;64776;42.636;24.358;2023-04-25T08:00:52;89356.84;;;10.50;74.69
76074;BME280;64776;42.636;24.358;2023-04-25T08:03:53;89351.53;;;10.39;75.33
76074;BME280;64776;42.636;24.358;2023-04-25T08:06:54;89360.66;;;10.71;77.49
76074;BME280;64776;42.636;24.358;2023-04-25T08:09:56;89359.19;;;10.70;76.08
76074;BME280;64776;42.636;24.358;2023-04-25T08:12:59;89368.38;;;10.80;76.76
76074;BME280;64776;42.636;24.358;2023-04-25T08:15:59;89364.94;;;10.91;74.52
76074;BME280;64776;42.636;24.358;2023-04-25T08:19:00;89368.75;;;11.12;78.54
76074;BME280;64776;42.636;24.358;2023-04-25T08:22:01;89367.97;;;11.22;75.86
76074;BME280;64776;42.636;24.358;2023-04-25T08:25:04;89368.50;;;11.10;73.64
76074;BME280;64776;42.636;24.358;2023-04-25T08:28:05;89372.28;;;10.79;75.62
76074;BME280;64776;42.636;24.358;2023-04-25T08:31:06;89366.94;;;10.79;74.64
76074;BME280;64776;42.636;24.358;2023-04-25T08:34:07;89359.09;;;10.92;76.00
76074;BME280;64776;42.636;24.358;2023-04-25T08:37:08;89363.66;;;11.08;78.89
76074;BME280;64776;42.636;24.358;2023-04-25T08:40:12;89352.94;;;11.14;76.15
76074;BME280;64776;42.636;24.358;2023-04-25T08:43:14;89347.69;;;11.43;75.96
76074;BME280;64776;42.636;24.358;2023-04-25T08:46:17;89340.28;;;11.61;73.12
76074;BME280;64776;42.636;24.358;2023-04-25T08:49:19;89345.16;;;11.57;73.35
76074;BME280;64776;42.636;24.358;2023-04-25T08:52:21;89346.41;;;11.91;72.70
76074;BME280;64776;42.636;24.358;2023-04-25T08:55:24;89352.00;;;11.87;70.72
76074;BME280;64776;42.636;24.358;2023-04-25T08:58:27;89353.13;;;12.03;73.09
76074;BME280;64776;42.636;24.358;2023-04-25T09:01:28;89349.41;;;12.11;69.92
76074;BME280;64776;42.636;24.358;2023-04-25T09:04:30;89340.88;;;12.13;70.02
76074;BME280;64776;42.636;24.358;2023-04-25T09:07:31;89349.63;;;12.62;70.10
76074;BME280;64776;42.636;24.358;2023-04-25T09:10:34;89338.06;;;12.96;66.46
76074;BME280;64776;42.636;24.358;2023-04-25T09:13:34;89343.19;;;13.19;67.42
76074;BME280;64776;42.636;24.358;2023-04-25T09:16:35;89347.41;;;13.08;64.45
76074;BME280;64776;42.636;24.358;2023-04-25T09:19:36;89331.00;;;13.18;64.26
76074;BME280;64776;42.636;24.358;2023-04-25T09:22:45;89329.94;;;12.83;65.29
76074;BME280;64776;42.636;24.358;2023-04-25T09:25:49;89341.72;;;12.75;66.12
76074;BME280;64776;42.636;24.358;2023-04-25T09:29:04;89338.31;;;12.74;64.81
76074;BME280;64776;42.636;24.358;2023-04-25T09:32:21;89331.06;;;12.45;66.52
76074;BME280;64776;42.636;24.358;2023-04-25T09:35:25;89326.63;;;12.29;65.44
76074;BME280;64776;42.636;24.358;2023-04-25T09:38:26;89327.94;;;12.17;66.47
76074;BME280;64776;42.636;24.358;2023-04-25T09:41:28;89331.75;;;12.27;66.43
76074;BME280;64776;42.636;24.358;2023-04-25T09:44:30;89327.22;;;12.65;64.85
76074;BME280;64776;42.636;24.358;2023-04-25T09:47:31;89332.13;;;13.03;64.74
76074;BME280;64776;42.636;24.358;2023-04-25T09:50:32;89329.41;;;13.28;63.52
76074;BME280;64776;42.636;24.358;2023-04-25T09:53:33;89321.38;;;13.28;61.53
76074;BME280;64776;42.636;24.358;2023-04-25T09:56:36;89317.53;;;13.42;62.33
76074;BME280;64776;42.636;24.358;2023-04-25T09:59:38;89320.22;;;13.23;61.39
76074;BME280;64776;42.636;24.358;2023-04-25T10:02:42;89326.50;;;13.07;63.38
76074;BME280;64776;42.636;24.358;2023-04-25T10:05:43;89320.16;;;13.29;60.41
76074;BME280;64776;42.636;24.358;2023-04-25T10:08:45;89311.81;;;13.32;57.46
76074;BME280;64776;42.636;24.358;2023-04-25T10:11:52;89315.28;;;13.27;58.76
76074;BME280;64776;42.636;24.358;2023-04-25T10:14:54;89301.53;;;13.18;56.85
76074;BME280;64776;42.636;24.358;2023-04-25T10:17:56;89296.94;;;13.50;56.27
76074;BME280;64776;42.636;24.358;2023-04-25T10:21:00;89281.81;;;14.29;56.30
76074;BME280;64776;42.636;24.358;2023-04-25T10:24:02;89276.44;;;14.29;56.76
76074;BME280;64776;42.636;24.358;2023-04-25T10:27:05;89283.38;;;13.93;56.86
76074;BME280;64776;42.636;24.358;2023-04-25T10:30:08;89274.22;;;14.01;55.52
76074;BME280;64776;42.636;24.358;2023-04-25T10:33:16;89270.25;;;13.76;56.60
76074;BME280;64776;42.636;24.358;2023-04-25T10:36:18;89258.69;;;14.39;54.96
76074;BME280;64776;42.636;24.358;2023-04-25T10:39:23;89249.16;;;15.03;54.23
76074;BME280;64776;42.636;24.358;2023-04-25T10:42:26;89245.22;;;15.38;50.95
76074;BME280;64776;42.636;24.358;2023-04-25T10:45:27;89253.03;;;15.28;52.39
76074;BME280;64776;42.636;24.358;2023-04-25T10:48:28;89256.88;;;15.20;51.00
76074;BME280;64776;42.636;24.358;2023-04-25T10:51:32;89255.19;;;14.18;54.90
76074;BME280;64776;42.636;24.358;2023-04-25T10:54:33;89257.16;;;14.30;53.70
76074;BME280;64776;42.636;24.358;2023-04-25T10:57:40;89264.53;;;14.24;56.26
76074;BME280;64776;42.636;24.358;2023-04-25T11:00:41;89261.72;;;14.48;56.51
76074;BME280;64776;42.636;24.358;2023-04-25T11:03:43;89272.88;;;14.52;56.73
76074;BME280;64776;42.636;24.358;2023-04-25T11:06:53;89281.03;;;13.39;58.77
76074;BME280;64776;42.636;24.358;2023-04-25T11:09:55;89274.69;;;13.04;60.47
76074;BME280;64776;42.636;24.358;2023-04-25T11:12:58;89269.09;;;13.02;62.44
76074;BME280;64776;42.636;24.358;2023-04-25T11:16:00;89271.75;;;13.02;63.73
76074;BME280;64776;42.636;24.358;2023-04-25T11:19:00;89260.97;;;13.77;62.94
76074;BME280;64776;42.636;24.358;2023-04-25T11:22:03;89257.97;;;14.25;57.94
76074;BME280;64776;42.636;24.358;2023-04-25T11:25:07;89258.88;;;14.80;55.94
76074;BME280;64776;42.636;24.358;2023-04-25T11:28:10;89255.06;;;14.76;56.83
76074;BME280;64776;42.636;24.358;2023-04-25T11:31:11;89252.81;;;14.66;54.82
76074;BME280;64776;42.636;24.358;2023-04-25T11:34:16;89262.00;;;14.58;54.28
76074;BME280;64776;42.636;24.358;2023-04-25T11:37:17;89240.34;;;14.69;53.43
76074;BME280;64776;42.636;24.358;2023-04-25T11:40:19;89246.94;;;14.81;50.84
76074;BME280;64776;42.636;24.358;2023-04-25T11:43:22;89243.25;;;15.05;53.05
76074;BME280;64776;42.636;24.358;2023-04-25T11:46:23;89251.97;;;14.72;53.86
76074;BME280;64776;42.636;24.358;2023-04-25T11:49:23;89253.53;;;14.80;53.42
76074;BME280;64776;42.636;24.358;2023-04-25T11:52:35;89242.69;;;14.73;51.84
76074;BME280;64776;42.636;24.358;2023-04-25T11:55:36;89244.16;;;14.47;54.16
76074;BME280;64776;42.636;24.358;2023-04-25T11:58:59;89245.09;;;14.63;53.84
76074;BME280;64776;42.636;24.358;2023-04-25T12:02:00;89233.56;;;14.89;53.33
76074;BME280;64776;42.636;24.358;2023-04-25T12:05:01;89229.78;;;14.71;54.52
76074;BME280;64776;42.636;24.358;2023-04-25T12:08:11;89224.34;;;14.37;55.11
76074;BME280;64776;42.636;24.358;2023-04-25T12:11:20;89216.38;;;13.61;56.42
76074;BME280;64776;42.636;24.358;2023-04-25T12:14:24;89211.38;;;13.83;58.43
76074;BME280;64776;42.636;24.358;2023-04-25T12:17:26;89218.88;;;13.72;57.76
76074;BME280;64776;42.636;24.358;2023-04-25T12:20:31;89207.38;;;14.03;55.74
76074;BME280;64776;42.636;24.358;2023-04-25T12:23:32;89197.50;;;14.37;55.69
76074;BME280;64776;42.636;24.358;2023-04-25T12:26:49;89217.81;;;14.72;55.43
76074;BME280;64776;42.636;24.358;2023-04-25T12:29:53;89217.63;;;14.31;56.78
76074;BME280;64776;42.636;24.358;2023-04-25T12:32:54;89212.34;;;13.99;56.97
76074;BME280;64776;42.636;24.358;2023-04-25T12:35:55;89215.28;;;13.69;55.54
76074;BME280;64776;42.636;24.358;2023-04-25T12:38:56;89218.72;;;13.96;56.02
76074;BME280;64776;42.636;24.358;2023-04-25T12:41:57;89218.59;;;14.02;55.97
76074;BME280;64776;42.636;24.358;2023-04-25T12:44:59;89219.75;;;14.72;54.20
76074;BME280;64776;42.636;24.358;2023-04-25T12:48:00;89216.97;;;15.11;50.04
76074;BME280;64776;42.636;24.358;2023-04-25T12:51:01;89202.69;;;15.29;50.62
76074;BME280;64776;42.636;24.358;2023-04-25T12:54:04;89209.78;;;15.06;51.97
76074;BME280;64776;42.636;24.358;2023-04-25T12:57:05;89202.44;;;15.06;48.17
76074;BME280;64776;42.636;24.358;2023-04-25T13:00:09;89191.97;;;15.50;46.31
76074;BME280;64776;42.636;24.358;2023-04-25T13:03:10;89186.94;;;16.15;46.83
76074;BME280;64776;42.636;24.358;2023-04-25T13:06:12;89193.69;;;16.37;47.63
76074;BME280;64776;42.636;24.358;2023-04-25T13:09:13;89204.88;;;15.92;46.57
76074;BME280;64776;42.636;24.358;2023-04-25T13:12:13;89198.72;;;15.43;49.05
76074;BME280;64776;42.636;24.358;2023-04-25T13:15:16;89197.19;;;15.34;48.67
76074;BME280;64776;42.636;24.358;2023-04-25T13:18:16;89217.38;;;14.16;50.80
76074;BME280;64776;42.636;24.358;2023-04-25T13:21:17;89215.56;;;14.37;50.71
76074;BME280;64776;42.636;24.358;2023-04-25T13:24:18;89213.13;;;13.81;51.13
76074;BME280;64776;42.636;24.358;2023-04-25T13:27:19;89206.69;;;13.26;53.19
76074;BME280;64776;42.636;24.358;2023-04-25T13:30:21;89206.31;;;13.35;52.95
76074;BME280;64776;42.636;24.358;2023-04-25T13:33:22;89206.50;;;13.56;53.58
76074;BME280;64776;42.636;24.358;2023-04-25T13:36:23;89204.44;;;13.75;53.58
76074;BME280;64776;42.636;24.358;2023-04-25T13:39:24;89198.72;;;14.10;54.68
76074;BME280;64776;42.636;24.358;2023-04-25T13:42:25;89191.34;;;14.76;51.53
76074;BME280;64776;42.636;24.358;2023-04-25T13:45:27;89172.16;;;15.06;51.95
76074;BME280;64776;42.636;24.358;2023-04-25T13:48:28;89172.84;;;15.40;49.54
76074;BME280;64776;42.636;24.358;2023-04-25T13:51:29;89177.03;;;15.28;49.42
76074;BME280;64776;42.636;24.358;2023-04-25T13:54:29;89169.16;;;15.09;50.40
76074;BME280;64776;42.636;24.358;2023-04-25T13:57:31;89175.19;;;15.23;49.50
76074;BME280;64776;42.636;24.358;2023-04-25T14:00:34;89166.94;;;15.21;49.12
76074;BME280;64776;42.636;24.358;2023-04-25T14:03:35;89169.56;;;15.34;49.62
76074;BME280;64776;42.636;24.358;2023-04-25T14:06:36;89165.78;;;15.50;49.31
76074;BME280;64776;42.636;24.358;2023-04-25T14:09:37;89180.00;;;14.70;48.84
76074;BME280;64776;42.636;24.358;2023-04-25T14:12:37;89190.66;;;14.10;52.84
76074;BME280;64776;42.636;24.358;2023-04-25T14:15:39;89191.28;;;13.90;53.18
76074;BME280;64776;42.636;24.358;2023-04-25T14:18:40;89201.59;;;14.25;52.82
76074;BME280;64776;42.636;24.358;2023-04-25T14:21:41;89185.88;;;13.77;54.87
76074;BME280;64776;42.636;24.358;2023-04-25T14:24:42;89184.34;;;13.05;57.33
76074;BME280;64776;42.636;24.358;2023-04-25T14:27:43;89202.63;;;12.69;59.40
76074;BME280;64776;42.636;24.358;2023-04-25T14:30:45;89188.63;;;12.76;60.31
76074;BME280;64776;42.636;24.358;2023-04-25T14:33:46;89193.19;;;12.44;60.96
76074;BME280;64776;42.636;24.358;2023-04-25T14:36:47;89195.38;;;12.03;61.80
76074;BME280;64776;42.636;24.358;2023-04-25T14:39:47;89197.97;;;12.08;62.76
76074;BME280;64776;42.636;24.358;2023-04-25T14:42:49;89203.94;;;11.96;62.90
76074;BME280;64776;42.636;24.358;2023-04-25T14:45:51;89204.25;;;11.63;62.92
76074;BME280;64776;42.636;24.358;2023-04-25T14:48:52;89193.63;;;11.27;64.25
76074;BME280;64776;42.636;24.358;2023-04-25T14:51:53;89189.91;;;11.66;63.09
76074;BME280;64776;42.636;24.358;2023-04-25T14:54:53;89187.63;;;11.99;61.00
76074;BME280;64776;42.636;24.358;2023-04-25T14:57:54;89183.03;;;12.18;62.10
76074;BME280;64776;42.636;24.358;2023-04-25T15:00:57;89168.56;;;12.08;60.17
76074;BME280;64776;42.636;24.358;2023-04-25T15:03:57;89172.72;;;11.85;60.69
76074;BME280;64776;42.636;24.358;2023-04-25T15:07:00;89181.81;;;11.47;60.76
76074;BME280;64776;42.636;24.358;2023-04-25T15:10:01;89180.78;;;11.80;61.66
76074;BME280;64776;42.636;24.358;2023-04-25T15:13:02;89177.41;;;12.22;62.78
76074;BME280;64776;42.636;24.358;2023-04-25T15:16:05;89166.00;;;12.21;60.25
76074;BME280;64776;42.636;24.358;2023-04-25T15:19:08;89161.19;;;11.96;59.64
76074;BME280;64776;42.636;24.358;2023-04-25T15:22:09;89162.59;;;11.78;60.37
76074;BME280;64776;42.636;24.358;2023-04-25T15:25:10;89158.13;;;12.29;58.37
76074;BME280;64776;42.636;24.358;2023-04-25T15:28:11;89162.72;;;12.84;56.19
76074;BME280;64776;42.636;24.358;2023-04-25T15:31:13;89161.81;;;12.26;57.11
76074;BME280;64776;42.636;24.358;2023-04-25T15:34:14;89157.31;;;12.15;57.57
76074;BME280;64776;42.636;24.358;2023-04-25T15:37:15;89164.75;;;12.22;58.76
76074;BME280;64776;42.636;24.358;2023-04-25T15:40:16;89158.81;;;12.11;59.31
76074;BME280;64776;42.636;24.358;2023-04-25T15:43:17;89157.06;;;11.71;59.98
76074;BME280;64776;42.636;24.358;2023-04-25T15:46:19;89156.00;;;11.55;62.16
76074;BME280;64776;42.636;24.358;2023-04-25T15:49:20;89140.34;;;11.65;61.68
76074;BME280;64776;42.636;24.358;2023-04-25T15:52:21;89137.00;;;11.34;62.65
76074;BME280;64776;42.636;24.358;2023-04-25T15:55:22;89129.41;;;10.85;64.51
76074;BME280;64776;42.636;24.358;2023-04-25T15:58:23;89131.97;;;10.66;65.46